createdAt,value
2018-05-27T00:02:01.303Z,99.90
2018-05-27T00:04:30.119Z,99.90
2018-05-27T00:06:57.674Z,99.90
2018-05-27T00:09:25.275Z,99.90
2018-05-27T00:11:52.807Z,99.90
2018-05-27T00:14:20.377Z,99.90
2018-05-27T00:16:48.708Z,99.90
2018-05-27T00:19:17.023Z,99.90
2018-05-27T00:21:46.576Z,99.90
2018-05-27T00:24:14.149Z,99.90
2018-05-27T00:26:42.835Z,99.90
2018-05-27T00:29:11.180Z,99.90
2018-05-27T00:31:40.362Z,99.90
2018-05-27T00:34:07.953Z,99.90
2018-05-27T00:36:35.535Z,99.90
2018-05-27T00:39:03.933Z,99.90
2018-05-27T00:41:33.312Z,99.90
2018-05-27T00:44:01.643Z,99.90
2018-05-27T00:46:29.864Z,99.90
2018-05-27T00:48:58.454Z,99.90
2018-05-27T00:51:27.421Z,99.90
2018-05-27T00:53:59.791Z,99.90
2018-05-27T00:56:27.353Z,99.90
2018-05-27T00:58:54.926Z,99.90
2018-05-27T01:01:23.239Z,99.90
2018-05-27T01:03:50.811Z,99.90
2018-05-27T01:06:18.364Z,99.90
2018-05-27T01:08:45.939Z,99.90
2018-05-27T01:11:14.610Z,99.90
2018-05-27T01:13:42.202Z,99.90
2018-05-27T01:16:09.835Z,99.90
2018-05-27T01:18:37.410Z,99.90
2018-05-27T01:21:06.217Z,99.90
2018-05-27T01:23:33.782Z,99.90
2018-05-27T01:26:02.629Z,99.90
2018-05-27T01:28:30.208Z,99.90
2018-05-27T01:30:59.175Z,99.90
2018-05-27T01:33:26.741Z,99.90
2018-05-27T01:35:55.332Z,99.90
2018-05-27T01:38:22.948Z,99.90
2018-05-27T01:40:50.519Z,99.90
2018-05-27T01:43:18.096Z,99.90
2018-05-27T01:45:46.685Z,99.90
2018-05-27T01:48:14.257Z,99.90
2018-05-27T01:50:42.269Z,99.90
2018-05-27T01:53:10.615Z,99.90
2018-05-27T01:55:39.693Z,99.90
2018-05-27T01:58:07.240Z,99.90
2018-05-27T02:00:34.795Z,99.90
2018-05-27T02:03:02.344Z,99.90
2018-05-27T02:05:29.907Z,99.90
2018-05-27T02:07:57.495Z,99.90
2018-05-27T02:10:26.298Z,99.90
2018-05-27T02:12:53.844Z,99.90
2018-05-27T02:15:22.648Z,99.90
2018-05-27T02:17:50.191Z,99.90
2018-05-27T02:20:17.744Z,99.90
2018-05-27T02:22:45.305Z,99.90
2018-05-27T02:25:12.860Z,99.90
2018-05-27T02:27:41.636Z,99.90
2018-05-27T02:30:09.226Z,99.90
2018-05-27T02:32:37.689Z,99.90
2018-05-27T02:35:05.247Z,99.90
2018-05-27T02:37:34.300Z,99.90
2018-05-27T02:40:01.885Z,99.90
2018-05-27T02:42:29.463Z,99.90
2018-05-27T02:44:57.032Z,99.90
2018-05-27T02:47:25.699Z,99.90
2018-05-27T02:49:53.270Z,99.90
2018-05-27T02:52:22.149Z,99.90
2018-05-27T02:54:49.730Z,99.90
2018-05-27T02:57:17.287Z,99.90
2018-05-27T02:59:44.895Z,99.90
2018-05-27T03:02:13.474Z,99.90
2018-05-27T03:04:41.034Z,99.90
2018-05-27T03:07:08.604Z,99.90
2018-05-27T03:09:36.184Z,99.90
2018-05-27T03:12:04.491Z,99.90
2018-05-27T03:14:32.825Z,99.90
2018-05-27T03:17:01.424Z,99.90
2018-05-27T03:19:28.989Z,99.90
2018-05-27T03:21:58.387Z,99.90
2018-05-27T03:24:25.977Z,99.90
2018-05-27T03:26:54.300Z,99.90
2018-05-27T03:29:21.885Z,99.90
2018-05-27T03:31:50.680Z,99.90
2018-05-27T03:34:18.244Z,99.90
2018-05-27T03:36:45.806Z,99.90
2018-05-27T03:39:13.367Z,99.90
2018-05-27T03:41:41.658Z,99.90
2018-05-27T03:44:10.025Z,99.90
2018-05-27T03:46:38.580Z,99.90
2018-05-27T03:49:06.152Z,99.90
2018-05-27T03:51:33.716Z,99.90
2018-05-27T03:54:01.304Z,99.90
2018-05-27T03:56:30.519Z,99.90
2018-05-27T03:58:58.099Z,99.90
2018-05-27T04:01:27.128Z,99.90
2018-05-27T04:04:07.719Z,99.90
2018-05-27T04:06:48.364Z,99.90
2018-05-27T04:09:16.729Z,99.90
2018-05-27T04:11:45.715Z,99.90
2018-05-27T04:14:13.268Z,99.90
2018-05-27T04:16:40.873Z,99.90
2018-05-27T04:19:08.431Z,99.90
2018-05-27T04:21:37.145Z,99.90
2018-05-27T04:24:04.731Z,99.90
2018-05-27T04:26:32.312Z,99.90
2018-05-27T04:28:59.880Z,99.90
2018-05-27T04:31:29.439Z,99.90
2018-05-27T04:33:56.998Z,99.90
2018-05-27T04:36:25.087Z,99.90
2018-05-27T04:38:52.737Z,99.90
2018-05-27T04:41:22.121Z,99.90
2018-05-27T04:43:49.687Z,99.90
2018-05-27T04:46:17.273Z,99.90
2018-05-27T04:48:44.854Z,99.90
2018-05-27T04:51:13.230Z,99.90
2018-05-27T04:53:40.792Z,99.90
2018-05-27T04:56:10.135Z,99.90
2018-05-27T04:58:37.716Z,99.90
2018-05-27T05:01:06.703Z,99.90
2018-05-27T05:03:34.268Z,99.90
2018-05-27T05:06:02.768Z,99.90
2018-05-27T05:08:30.315Z,99.90
2018-05-27T05:10:58.695Z,98.70
2018-05-27T05:13:26.242Z,98.60
2018-05-27T05:15:55.431Z,98.10
2018-05-27T05:18:22.994Z,98.30
2018-05-27T05:20:52.448Z,98.50
2018-05-27T05:23:24.105Z,96.70
2018-05-27T05:25:52.977Z,96.60
2018-05-27T05:28:21.307Z,93.90
2018-05-27T05:30:48.875Z,93.70
2018-05-27T05:33:16.436Z,92.90
2018-05-27T05:35:44.007Z,93.30
2018-05-27T05:38:11.551Z,93.40
2018-05-27T05:40:39.100Z,92.40
2018-05-27T05:43:06.645Z,91.70
2018-05-27T05:45:34.186Z,91.80
2018-05-27T05:48:01.747Z,92.10
2018-05-27T05:50:29.306Z,91.20
2018-05-27T05:52:56.852Z,90.50
2018-05-27T05:55:25.197Z,87.30
2018-05-27T05:57:54.185Z,87.30
2018-05-27T06:00:21.839Z,88.10
2018-05-27T06:02:49.585Z,86.00
2018-05-27T06:05:17.169Z,84.80
2018-05-27T06:07:44.767Z,87.30
2018-05-27T06:10:13.443Z,84.90
2018-05-27T06:12:43.326Z,84.00
2018-05-27T06:15:13.052Z,84.00
2018-05-27T06:17:40.639Z,84.70
2018-05-27T06:20:08.186Z,81.60
2018-05-27T06:22:36.515Z,83.40
2018-05-27T06:25:04.057Z,83.30
2018-05-27T06:27:31.661Z,83.00
2018-05-27T06:29:59.202Z,84.40
2018-05-27T06:32:26.775Z,82.60
2018-05-27T06:34:54.473Z,81.30
2018-05-27T06:37:23.969Z,80.50
2018-05-27T06:39:52.331Z,80.20
2018-05-27T06:42:19.905Z,80.00
2018-05-27T06:44:47.481Z,80.90
2018-05-27T06:47:15.110Z,82.40
2018-05-27T06:49:44.400Z,81.30
2018-05-27T06:52:13.485Z,82.50
2018-05-27T06:54:41.279Z,80.60
2018-05-27T06:57:08.971Z,82.80
2018-05-27T06:59:36.730Z,81.70
2018-05-27T07:02:06.193Z,81.70
2018-05-27T07:04:33.803Z,82.00
2018-05-27T07:07:01.339Z,81.80
2018-05-27T07:09:28.979Z,82.30
2018-05-27T07:11:56.553Z,81.60
2018-05-27T07:14:24.386Z,81.70
2018-05-27T07:16:51.946Z,80.40
2018-05-27T07:19:19.484Z,78.60
2018-05-27T07:21:47.050Z,77.80
2018-05-27T07:24:15.706Z,79.10
2018-05-27T07:26:44.163Z,79.90
2018-05-27T07:29:11.842Z,80.80
2018-05-27T07:31:39.426Z,81.50
2018-05-27T07:34:12.750Z,81.70
2018-05-27T07:36:40.326Z,83.20
2018-05-27T07:39:14.785Z,84.00
2018-05-27T07:41:43.633Z,83.30
2018-05-27T07:44:11.969Z,84.60
2018-05-27T07:46:41.531Z,84.70
2018-05-27T07:49:11.253Z,83.70
2018-05-27T07:51:42.886Z,82.00
2018-05-27T07:54:13.073Z,83.10
2018-05-27T07:56:40.734Z,84.40
2018-05-27T07:59:08.800Z,85.20
2018-05-27T08:01:39.496Z,82.00
2018-05-27T08:04:11.713Z,83.30
2018-05-27T08:06:40.686Z,83.10
2018-05-27T08:09:10.424Z,83.00
2018-05-27T08:11:39.026Z,81.50
2018-05-27T08:14:06.576Z,81.50
2018-05-27T08:16:36.509Z,80.90
2018-05-27T08:19:04.085Z,80.90
2018-05-27T08:21:33.484Z,82.40
2018-05-27T08:24:01.086Z,83.20
2018-05-27T08:26:29.577Z,80.60
2018-05-27T08:28:57.155Z,81.50
2018-05-27T08:31:25.493Z,80.60
2018-05-27T08:33:53.073Z,80.50
2018-05-27T08:36:21.845Z,81.10
2018-05-27T08:38:49.480Z,83.60
2018-05-27T08:41:25.142Z,79.70
2018-05-27T08:43:52.741Z,79.80
2018-05-27T08:46:21.416Z,79.80
2018-05-27T08:48:51.434Z,79.80
2018-05-27T08:51:21.228Z,79.80
2018-05-27T08:53:48.835Z,79.90
2018-05-27T08:56:17.821Z,78.70
2018-05-27T08:58:45.392Z,78.10
2018-05-27T09:01:14.894Z,78.30
2018-05-27T09:03:42.409Z,77.90
2018-05-27T09:06:09.962Z,77.80
2018-05-27T09:08:37.533Z,76.00
2018-05-27T09:11:05.120Z,73.20
2018-05-27T09:13:32.743Z,74.50
2018-05-27T09:16:00.461Z,74.30
2018-05-27T09:18:28.009Z,74.00
2018-05-27T09:21:03.297Z,75.20
2018-05-27T09:23:30.897Z,74.10
2018-05-27T09:25:59.973Z,74.50
2018-05-27T09:28:28.392Z,73.30
2018-05-27T09:30:56.013Z,72.70
2018-05-27T09:33:23.499Z,74.50
2018-05-27T09:35:52.228Z,74.30
2018-05-27T09:38:22.882Z,74.00
2018-05-27T09:40:52.720Z,73.70
2018-05-27T09:43:21.961Z,74.40
2018-05-27T09:45:49.690Z,74.40
2018-05-27T09:48:17.567Z,74.70
2018-05-27T09:50:46.380Z,74.00
2018-05-27T09:53:14.004Z,76.40
2018-05-27T09:55:42.865Z,76.30
2018-05-27T09:58:10.702Z,76.40
2018-05-27T10:00:40.530Z,77.10
2018-05-27T10:03:08.177Z,76.40
2018-05-27T10:05:37.624Z,75.40
2018-05-27T10:08:05.363Z,75.60
2018-05-27T10:10:33.190Z,76.70
2018-05-27T10:13:01.094Z,76.70
2018-05-27T10:15:33.567Z,77.20
2018-05-27T10:18:01.132Z,77.20
2018-05-27T10:20:30.677Z,76.90
2018-05-27T10:22:58.303Z,76.90
2018-05-27T10:25:27.950Z,76.10
2018-05-27T10:27:55.607Z,76.70
2018-05-27T10:30:23.196Z,73.70
2018-05-27T10:32:50.796Z,70.20
2018-05-27T10:35:18.334Z,71.90
2018-05-27T10:37:45.864Z,69.10
2018-05-27T10:40:13.476Z,70.00
2018-05-27T10:42:41.812Z,69.00
2018-05-27T10:45:09.365Z,68.90
2018-05-27T10:47:38.264Z,67.90
2018-05-27T10:50:08.896Z,68.20
2018-05-27T10:52:36.462Z,68.50
2018-05-27T10:55:04.013Z,70.50
2018-05-27T10:57:38.719Z,68.40
2018-05-27T11:00:06.291Z,65.30
2018-05-27T11:02:33.868Z,65.30
2018-05-27T11:05:01.415Z,66.50
2018-05-27T11:07:30.948Z,67.30
2018-05-27T11:09:59.279Z,66.60
2018-05-27T11:12:26.932Z,66.50
2018-05-27T11:14:55.432Z,67.00
2018-05-27T11:17:23.065Z,66.60
2018-05-27T11:19:52.129Z,63.90
2018-05-27T11:22:19.729Z,67.20
2018-05-27T11:24:47.261Z,67.20
2018-05-27T11:27:20.069Z,66.50
2018-05-27T11:29:47.621Z,67.10
2018-05-27T11:32:17.043Z,65.70
2018-05-27T11:34:45.565Z,65.60
2018-05-27T11:37:13.876Z,66.10
2018-05-27T11:39:41.420Z,66.00
2018-05-27T11:42:10.020Z,67.70
2018-05-27T11:44:37.541Z,68.10
2018-05-27T11:47:07.737Z,65.40
2018-05-27T11:49:35.343Z,65.40
2018-05-27T11:52:02.907Z,64.70
2018-05-27T11:54:30.441Z,64.40
2018-05-27T11:56:58.824Z,66.40
2018-05-27T11:59:27.142Z,68.30
2018-05-27T12:01:54.716Z,68.30
2018-05-27T12:04:22.278Z,66.30
2018-05-27T12:06:49.828Z,66.10
2018-05-27T12:09:17.409Z,65.90
2018-05-27T12:11:45.265Z,67.10
2018-05-27T12:14:12.765Z,67.40
2018-05-27T12:16:42.809Z,68.00
2018-05-27T12:19:10.413Z,68.00
2018-05-27T12:21:38.285Z,68.30
2018-05-27T12:24:06.075Z,69.00
2018-05-27T12:26:34.718Z,68.40
2018-05-27T12:29:02.268Z,68.30
2018-05-27T12:31:29.803Z,68.20
2018-05-27T12:33:57.336Z,68.30
2018-05-27T12:36:24.861Z,68.60
2018-05-27T12:38:52.483Z,68.20
2018-05-27T12:41:20.065Z,68.50
2018-05-27T12:43:47.598Z,70.30
2018-05-27T12:46:15.152Z,69.00
2018-05-27T12:48:42.705Z,69.40
2018-05-27T12:51:10.277Z,68.90
2018-05-27T12:53:37.811Z,67.30
2018-05-27T12:56:06.803Z,67.20
2018-05-27T12:58:34.380Z,66.50
2018-05-27T13:01:03.114Z,67.20
2018-05-27T13:03:30.680Z,67.80
2018-05-27T13:05:59.055Z,67.10
2018-05-27T13:08:26.612Z,67.10
2018-05-27T13:10:54.664Z,67.10
2018-05-27T13:13:22.210Z,67.70
2018-05-27T13:15:51.572Z,68.00
2018-05-27T13:18:19.196Z,67.50
2018-05-27T13:20:46.759Z,67.40
2018-05-27T13:23:14.309Z,65.00
2018-05-27T13:25:42.043Z,66.10
2018-05-27T13:28:09.640Z,65.30
2018-05-27T13:30:38.504Z,64.80
2018-05-27T13:33:06.056Z,64.30
2018-05-27T13:35:35.407Z,65.20
2018-05-27T13:38:06.235Z,66.10
2018-05-27T13:40:35.445Z,66.00
2018-05-27T13:43:03.064Z,65.90
2018-05-27T13:45:32.090Z,66.90
2018-05-27T13:48:00.488Z,66.90
2018-05-27T13:50:29.466Z,66.80
2018-05-27T13:52:57.842Z,67.30
2018-05-27T13:55:27.095Z,66.10
2018-05-27T13:57:54.699Z,66.00
2018-05-27T14:00:23.465Z,65.20
2018-05-27T14:02:51.091Z,64.50
2018-05-27T14:05:18.655Z,65.80
2018-05-27T14:07:46.228Z,66.70
2018-05-27T14:10:13.851Z,67.60
2018-05-27T14:12:44.513Z,67.60
2018-05-27T14:15:12.162Z,66.20
2018-05-27T14:17:41.638Z,66.60
2018-05-27T14:20:09.191Z,67.20
2018-05-27T14:22:36.763Z,65.40
2018-05-27T14:25:04.317Z,66.10
2018-05-27T14:27:33.044Z,65.90
2018-05-27T14:30:00.682Z,66.30
2018-05-27T14:32:29.366Z,67.10
2018-05-27T14:34:56.976Z,67.20
2018-05-27T14:37:25.950Z,67.30
2018-05-27T14:39:53.607Z,67.30
2018-05-27T14:42:22.784Z,69.40
2018-05-27T14:44:50.421Z,69.50
2018-05-27T14:47:17.992Z,68.70
2018-05-27T14:49:45.579Z,68.70
2018-05-27T14:55:06.023Z,73.80
2018-05-27T14:57:36.168Z,62.90
2018-05-27T15:00:08.192Z,63.00
2018-05-27T15:02:36.768Z,64.50
2018-05-27T15:05:04.301Z,64.50
2018-05-27T15:07:33.186Z,61.80
2018-05-27T15:10:00.733Z,61.70
2018-05-27T15:12:28.259Z,64.00
2018-05-27T15:14:55.776Z,62.90
2018-05-27T15:17:24.076Z,61.00
2018-05-27T15:19:52.407Z,62.70
2018-05-27T15:22:19.945Z,62.70
2018-05-27T15:24:47.451Z,62.00
2018-05-27T15:27:14.991Z,60.30
2018-05-27T15:29:42.552Z,60.50
2018-05-27T15:32:10.118Z,60.60
2018-05-27T15:34:38.406Z,61.70
2018-05-27T15:37:06.685Z,60.10
2018-05-27T15:39:34.294Z,60.10
2018-05-27T15:42:02.863Z,60.40
2018-05-27T15:44:30.405Z,61.00
2018-05-27T15:46:57.942Z,61.60
2018-05-27T15:49:25.447Z,60.60
2018-05-27T15:51:52.991Z,61.70
2018-05-27T15:54:20.516Z,62.10
2018-05-27T15:56:48.795Z,62.30
2018-05-27T15:59:16.447Z,62.20
2018-05-27T16:01:43.959Z,62.10
2018-05-27T16:04:11.490Z,62.80
2018-05-27T16:06:39.005Z,62.10
2018-05-27T16:09:06.568Z,63.10
2018-05-27T16:11:34.112Z,62.90
2018-05-27T16:14:02.631Z,62.80
2018-05-27T16:16:30.908Z,62.20
2018-05-27T16:18:59.203Z,63.20
2018-05-27T16:21:26.717Z,63.20
2018-05-27T16:23:54.244Z,63.00
2018-05-27T16:26:21.753Z,62.20
2018-05-27T16:28:49.287Z,62.40
2018-05-27T16:31:16.812Z,62.80
2018-05-27T16:33:44.340Z,62.80
2018-05-27T16:36:11.852Z,62.60
2018-05-27T16:38:39.389Z,63.00
2018-05-27T16:41:07.700Z,63.20
2018-05-27T16:43:36.014Z,63.40
2018-05-27T16:46:03.554Z,63.40
2018-05-27T16:48:31.128Z,63.00
2018-05-27T16:50:59.215Z,64.90
2018-05-27T16:53:26.749Z,65.40
2018-05-27T16:55:55.040Z,64.50
2018-05-27T16:58:23.347Z,64.50
2018-05-27T17:00:51.665Z,64.00
2018-05-27T17:03:19.211Z,64.00
2018-05-27T17:05:46.741Z,63.40
2018-05-27T17:08:14.271Z,61.60
2018-05-27T17:10:41.781Z,58.90
2018-05-27T17:13:10.064Z,58.60
2018-05-27T17:15:37.614Z,58.60
2018-05-27T17:18:05.184Z,57.70
2018-05-27T17:20:33.533Z,56.90
2018-05-27T17:23:01.395Z,57.70
2018-05-27T17:25:28.897Z,57.20
2018-05-27T17:27:56.452Z,55.60
2018-05-27T17:30:23.945Z,55.40
2018-05-27T17:32:51.478Z,54.50
2018-05-27T17:35:19.776Z,58.30
2018-05-27T17:37:48.068Z,59.50
2018-05-27T17:40:15.587Z,59.50
2018-05-27T17:42:43.126Z,58.90
2018-05-27T17:45:10.786Z,58.70
2018-05-27T17:47:38.296Z,58.20
2018-05-27T17:50:05.832Z,58.50
2018-05-27T17:52:33.368Z,59.60
2018-05-27T17:55:00.898Z,59.70
2018-05-27T17:57:29.199Z,59.90
2018-05-27T17:59:56.763Z,59.80
2018-05-27T18:02:25.038Z,59.20
2018-05-27T18:04:52.588Z,59.20
2018-05-27T18:07:20.133Z,58.90
2018-05-27T18:09:48.478Z,60.40
2018-05-27T18:12:15.959Z,60.50
2018-05-27T18:14:43.482Z,59.70
2018-05-27T18:17:11.030Z,61.40
2018-05-27T18:19:38.560Z,62.20
2018-05-27T18:22:06.097Z,62.20
2018-05-27T18:24:33.664Z,62.70
2018-05-27T18:27:01.186Z,63.30
2018-05-27T18:29:28.722Z,64.30
2018-05-27T18:31:57.057Z,64.20
2018-05-27T18:34:24.590Z,64.20
2018-05-27T18:36:52.892Z,65.60
2018-05-27T18:39:20.428Z,65.60
2018-05-27T18:41:47.938Z,66.30
2018-05-27T18:44:15.484Z,67.40
2018-05-27T18:46:43.006Z,67.90
2018-05-27T18:49:10.535Z,68.90
2018-05-27T18:51:38.057Z,70.20
2018-05-27T18:54:05.620Z,71.00
2018-05-27T18:56:33.168Z,72.70
2018-05-27T18:59:00.704Z,73.70
2018-05-27T19:01:28.205Z,74.20
2018-05-27T19:03:55.746Z,75.10
2018-05-27T19:06:23.267Z,76.70
2018-05-27T19:08:50.812Z,77.30
2018-05-27T19:11:18.322Z,77.70
2018-05-27T19:13:45.855Z,77.90
2018-05-27T19:16:14.142Z,77.40
2018-05-27T19:18:41.663Z,77.30
2018-05-27T19:21:09.192Z,78.20
2018-05-27T19:23:36.750Z,79.00
2018-05-27T19:26:04.304Z,78.90
2018-05-27T19:28:33.321Z,79.20
2018-05-27T19:31:00.846Z,79.20
2018-05-27T19:33:28.369Z,80.70
2018-05-27T19:35:56.652Z,81.70
2018-05-27T19:38:24.182Z,81.70
2018-05-27T19:40:51.717Z,83.00
2018-05-27T19:43:19.280Z,83.10
2018-05-27T19:45:46.785Z,82.70
2018-05-27T19:48:14.328Z,82.90
2018-05-27T19:50:41.828Z,83.60
2018-05-27T19:53:09.346Z,84.70
2018-05-27T19:55:36.882Z,85.10
2018-05-27T19:58:04.443Z,85.40
2018-05-27T20:00:32.040Z,85.80
2018-05-27T20:02:59.563Z,86.20
2018-05-27T20:05:27.113Z,86.60
2018-05-27T20:07:54.637Z,87.00
2018-05-27T20:10:22.190Z,87.90
2018-05-27T20:12:49.719Z,88.30
2018-05-27T20:15:17.241Z,88.70
2018-05-27T20:17:44.779Z,89.70
2018-05-27T20:20:12.329Z,90.20
2018-05-27T20:22:39.868Z,90.30
2018-05-27T20:25:08.185Z,90.90
2018-05-27T20:27:35.721Z,90.80
2018-05-27T20:30:03.896Z,91.10
2018-05-27T20:32:31.640Z,91.40
2018-05-27T20:34:59.935Z,92.10
2018-05-27T20:37:27.449Z,92.10
2018-05-27T20:39:54.981Z,92.20
2018-05-27T20:42:22.541Z,92.80
2018-05-27T20:44:50.085Z,93.10
2018-05-27T20:47:18.373Z,93.90
2018-05-27T20:49:45.902Z,93.90
2018-05-27T20:52:13.426Z,94.40
2018-05-27T20:54:40.973Z,94.50
2018-05-27T20:57:08.482Z,94.70
2018-05-27T20:59:36.054Z,95.00
2018-05-27T21:02:03.590Z,94.80
2018-05-27T21:04:32.097Z,94.70
2018-05-27T21:07:00.378Z,94.80
2018-05-27T21:09:27.928Z,94.70
2018-05-27T21:11:55.436Z,94.80
2018-05-27T21:14:22.971Z,95.40
2018-05-27T21:16:50.502Z,95.80
2018-05-27T21:19:18.025Z,96.00
2018-05-27T21:21:45.664Z,95.90
2018-05-27T21:24:13.201Z,96.10
2018-05-27T21:26:40.747Z,96.30
2018-05-27T21:29:08.264Z,96.20
2018-05-27T21:31:35.791Z,96.90
2018-05-27T21:34:03.363Z,97.30
2018-05-27T21:36:30.884Z,97.40
2018-05-27T21:38:58.409Z,97.30
2018-05-27T21:41:25.940Z,97.90
2018-05-27T21:43:53.469Z,98.40
2018-05-27T21:46:21.012Z,98.70
2018-05-27T21:48:48.541Z,99.00
2018-05-27T21:51:16.060Z,99.20
2018-05-27T21:53:43.596Z,99.50
2018-05-27T21:56:11.889Z,99.90
2018-05-27T21:58:40.206Z,99.80
2018-05-27T22:01:08.508Z,99.90
2018-05-27T22:03:36.048Z,99.90
2018-05-27T22:06:03.623Z,99.90
2018-05-27T22:08:31.172Z,99.90
2018-05-27T22:10:58.714Z,99.90
2018-05-27T22:13:26.251Z,99.90
2018-05-27T22:15:53.772Z,99.90
2018-05-27T22:18:21.354Z,99.90
2018-05-27T22:20:48.882Z,99.90
2018-05-27T22:23:16.442Z,99.90
2018-05-27T22:25:44.740Z,99.90
2018-05-27T22:28:12.260Z,99.90
2018-05-27T22:30:39.796Z,99.90
2018-05-27T22:33:07.327Z,99.90
2018-05-27T22:35:34.871Z,99.90
2018-05-27T22:38:02.410Z,99.90
2018-05-27T22:40:30.783Z,99.90
2018-05-27T22:42:59.081Z,99.90
2018-05-27T22:45:27.387Z,99.90
2018-05-27T22:47:54.904Z,99.90
2018-05-27T22:50:22.779Z,99.90
2018-05-27T22:52:50.390Z,99.90
2018-05-27T22:55:18.523Z,99.90
2018-05-27T22:57:46.186Z,99.90
2018-05-27T23:00:14.508Z,99.90
2018-05-27T23:02:42.829Z,99.90
2018-05-27T23:05:10.678Z,99.90
2018-05-27T23:07:38.272Z,99.90
2018-05-27T23:10:05.863Z,99.90
2018-05-27T23:12:33.493Z,99.90
2018-05-27T23:15:01.165Z,99.90
2018-05-27T23:17:29.720Z,99.90
2018-05-27T23:19:57.538Z,99.90
2018-05-27T23:22:25.590Z,99.90
2018-05-27T23:24:54.155Z,99.90
2018-05-27T23:27:21.773Z,99.90
2018-05-27T23:29:49.620Z,99.90
2018-05-27T23:32:17.291Z,99.90
2018-05-27T23:34:44.965Z,99.90
2018-05-27T23:37:12.668Z,99.90
2018-05-27T23:39:40.366Z,99.90
2018-05-27T23:42:07.916Z,99.90
2018-05-27T23:44:35.587Z,99.90
2018-05-27T23:47:03.140Z,99.90
2018-05-27T23:49:31.499Z,99.90
2018-05-27T23:51:59.251Z,99.90
2018-05-27T23:54:26.821Z,99.90
2018-05-27T23:56:55.168Z,99.90
2018-05-27T23:59:22.737Z,99.90
